createdAt,value
2023-03-16T00:04:31.520Z,-2.37
2023-03-16T00:09:33.693Z,-2.35
2023-03-16T00:14:35.688Z,-2.35
2023-03-16T00:19:37.173Z,-2.40
2023-03-16T00:24:38.795Z,-2.40
2023-03-16T00:29:55.613Z,-2.45
2023-03-16T00:34:57.851Z,-2.49
2023-03-16T00:39:59.808Z,-2.46
2023-03-16T00:45:01.614Z,-2.51
2023-03-16T00:50:03.333Z,-2.50
2023-03-16T00:55:05.165Z,-2.49
2023-03-16T01:00:12.868Z,-2.42
2023-03-16T01:05:15.215Z,-2.42
2023-03-16T01:10:17.470Z,-2.34
2023-03-16T01:15:19.161Z,-2.30
2023-03-16T01:20:20.864Z,-2.14
2023-03-16T01:25:22.452Z,-1.98
2023-03-16T01:30:24.139Z,-1.79
2023-03-16T01:35:25.815Z,-1.66
2023-03-16T01:40:27.811Z,-1.52
2023-03-16T01:45:57.599Z,-1.47
2023-03-16T01:51:00.189Z,-1.47
2023-03-16T01:56:05.926Z,-1.51
2023-03-16T02:01:08.137Z,-1.48
2023-03-16T02:06:19.001Z,-1.33
2023-03-16T02:11:26.366Z,-1.37
2023-03-16T02:16:35.253Z,-1.38
2023-03-16T02:22:06.306Z,-1.40
2023-03-16T02:27:12.831Z,-1.45
2023-03-16T02:32:15.261Z,-1.50
2023-03-16T02:37:16.808Z,-1.52
2023-03-16T02:42:22.835Z,-1.54
2023-03-16T02:47:44.645Z,-1.43
2023-03-16T02:52:48.445Z,-1.35
2023-03-16T02:57:52.200Z,-1.28
2023-03-16T03:02:54.396Z,-1.29
2023-03-16T03:07:56.078Z,-1.29
2023-03-16T03:12:58.794Z,-1.25
2023-03-16T03:18:00.818Z,-1.23
2023-03-16T03:23:05.472Z,-1.23
2023-03-16T03:28:07.033Z,-1.19
2023-03-16T03:33:08.980Z,-1.21
2023-03-16T03:38:11.441Z,-1.24
2023-03-16T03:43:13.202Z,-1.12
2023-03-16T03:48:17.590Z,-1.05
2023-03-16T03:53:20.335Z,-1.08
2023-03-16T03:58:50.069Z,-1.07
2023-03-16T04:04:00.870Z,-0.98
2023-03-16T04:09:03.040Z,-0.85
2023-03-16T04:14:05.815Z,-0.79
2023-03-16T04:19:07.930Z,-0.73
2023-03-16T04:24:10.042Z,-0.65
2023-03-16T04:29:14.302Z,-0.59
2023-03-16T04:34:16.039Z,-0.50
2023-03-16T04:39:18.717Z,-0.43
2023-03-16T04:44:20.562Z,-0.36
2023-03-16T04:49:24.780Z,-0.28
2023-03-16T04:54:26.351Z,-0.21
2023-03-16T04:59:27.923Z,-0.19
2023-03-16T05:04:37.837Z,-0.12
2023-03-16T05:09:40.234Z,-0.07
2023-03-16T05:14:41.964Z,-0.01
2023-03-16T05:19:58.424Z,-0.03
2023-03-16T05:25:03.290Z,-0.02
2023-03-16T05:30:05.522Z,0.04
2023-03-16T05:35:13.225Z,0.14
2023-03-16T05:40:18.721Z,0.18
2023-03-16T05:45:28.585Z,0.22
2023-03-16T05:50:52.498Z,0.26
2023-03-16T05:56:01.150Z,0.32
2023-03-16T06:01:04.863Z,0.36
2023-03-16T06:06:08.770Z,0.46
2023-03-16T06:11:21.965Z,0.60
2023-03-16T06:16:24.181Z,0.72
2023-03-16T06:21:25.956Z,0.78
2023-03-16T06:26:30.003Z,0.91
2023-03-16T06:31:34.016Z,1.02
2023-03-16T06:36:39.793Z,1.05
2023-03-16T06:41:45.345Z,1.16
2023-03-16T06:46:49.681Z,1.23
2023-03-16T06:51:51.399Z,1.34
2023-03-16T06:56:53.888Z,1.43
2023-03-16T07:01:56.632Z,1.54
2023-03-16T07:06:58.191Z,1.65
2023-03-16T07:11:59.857Z,1.79
2023-03-16T07:17:01.852Z,1.91
2023-03-16T07:22:04.320Z,2.01
2023-03-16T07:27:12.375Z,2.13
2023-03-16T07:32:14.800Z,2.28
2023-03-16T07:37:18.398Z,2.38
2023-03-16T07:42:23.769Z,2.51
2023-03-16T07:47:38.619Z,2.60
2023-03-16T07:52:57.713Z,2.67
2023-03-16T07:57:59.377Z,2.74
2023-03-16T08:03:06.968Z,2.83
2023-03-16T08:08:09.584Z,2.90
2023-03-16T08:13:12.498Z,3.00
2023-03-16T08:18:17.064Z,3.14
2023-03-16T08:23:19.681Z,3.23
2023-03-16T08:28:25.809Z,3.33
2023-03-16T08:33:29.192Z,3.41
2023-03-16T08:38:30.926Z,3.50
2023-03-16T08:43:37.541Z,3.52
2023-03-16T08:48:46.906Z,3.61
2023-03-16T08:53:49.841Z,3.61
2023-03-16T08:58:52.201Z,3.94
2023-03-16T09:03:54.925Z,4.12
2023-03-16T09:08:57.528Z,4.24
2023-03-16T09:14:00.361Z,4.34
2023-03-16T09:19:05.919Z,4.50
2023-03-16T09:24:09.075Z,4.69
2023-03-16T09:29:10.685Z,4.80
2023-03-16T09:34:12.787Z,4.88
2023-03-16T09:39:15.408Z,5.03
2023-03-16T09:44:33.843Z,5.20
2023-03-16T09:49:40.709Z,5.37
2023-03-16T09:54:50.940Z,5.61
2023-03-16T09:59:53.165Z,5.79
2023-03-16T10:05:15.468Z,6.03
2023-03-16T10:10:49.338Z,6.31
2023-03-16T10:15:53.724Z,6.80
2023-03-16T10:20:58.692Z,6.69
2023-03-16T10:26:05.251Z,6.76
2023-03-16T10:31:07.046Z,6.72
2023-03-16T10:36:15.830Z,6.74
2023-03-16T10:41:21.326Z,7.15
2023-03-16T10:46:27.975Z,7.24
2023-03-16T10:51:33.292Z,7.27
2023-03-16T10:56:36.078Z,7.20
2023-03-16T11:01:37.679Z,7.59
2023-03-16T11:06:57.181Z,7.79
2023-03-16T11:12:00.242Z,8.13
2023-03-16T11:17:12.868Z,8.21
2023-03-16T11:22:17.779Z,8.44
2023-03-16T11:27:37.720Z,8.31
2023-03-16T11:32:42.276Z,8.34
2023-03-16T11:38:09.416Z,8.23
2023-03-16T11:43:32.829Z,8.19
2023-03-16T11:48:42.718Z,8.17
2023-03-16T11:53:47.908Z,8.20
2023-03-16T11:58:56.172Z,8.08
2023-03-16T12:04:12.969Z,8.08
2023-03-16T12:09:47.543Z,8.21
2023-03-16T12:15:18.861Z,8.18
2023-03-16T12:20:29.347Z,8.18
2023-03-16T12:25:38.095Z,7.99
2023-03-16T12:30:53.350Z,7.99
2023-03-16T12:36:19.279Z,7.81
2023-03-16T12:41:44.981Z,7.72
2023-03-16T12:47:03.623Z,7.85
2023-03-16T12:52:14.501Z,7.92
2023-03-16T12:57:17.258Z,7.89
2023-03-16T13:02:25.166Z,7.83
2023-03-16T13:07:31.013Z,7.70
2023-03-16T13:12:37.162Z,7.61
2023-03-16T13:17:39.325Z,7.63
2023-03-16T13:22:50.010Z,7.26
2023-03-16T13:27:58.200Z,7.05
2023-03-16T13:33:06.575Z,6.89
2023-03-16T13:38:16.630Z,6.62
2023-03-16T13:43:30.573Z,6.61
2023-03-16T13:48:39.071Z,6.74
2023-03-16T13:53:51.342Z,6.87
2023-03-16T14:10:26.917Z,7.37
2023-03-16T14:21:24.833Z,7.87
2023-03-16T14:27:24.671Z,8.03
2023-03-16T14:38:45.367Z,8.21
2023-03-16T14:44:23.175Z,8.34
2023-03-16T14:49:51.663Z,8.28
2023-03-16T14:55:45.415Z,8.25
2023-03-16T15:01:47.939Z,8.17
2023-03-16T15:14:19.330Z,8.21
2023-03-16T15:25:05.263Z,8.06
2023-03-16T15:30:46.013Z,8.05
2023-03-16T15:37:28.119Z,8.01
2023-03-16T15:43:08.827Z,7.88
2023-03-16T15:54:56.586Z,7.68
2023-03-16T16:05:35.484Z,7.61
2023-03-16T16:11:22.853Z,7.59
2023-03-16T16:16:47.989Z,7.56
2023-03-16T16:21:54.252Z,7.49
2023-03-16T16:27:02.057Z,7.39
2023-03-16T16:32:09.475Z,7.33
2023-03-16T16:37:11.328Z,7.29
2023-03-16T16:42:17.675Z,7.22
2023-03-16T16:47:23.404Z,7.16
2023-03-16T16:52:28.975Z,7.12
2023-03-16T16:57:31.754Z,7.11
2023-03-16T17:02:44.559Z,7.08
2023-03-16T17:07:46.896Z,7.04
2023-03-16T17:12:50.754Z,6.97
2023-03-16T17:18:13.997Z,6.89
2023-03-16T17:23:34.514Z,6.82
2023-03-16T17:28:39.647Z,6.71
2023-03-16T17:33:41.329Z,6.58
2023-03-16T17:38:43.831Z,6.49
2023-03-16T17:43:49.140Z,6.49
2023-03-16T17:48:53.001Z,6.42
2023-03-16T17:53:55.684Z,6.35
2023-03-16T17:58:57.585Z,6.26
2023-03-16T18:04:00.644Z,6.22
2023-03-16T18:09:02.362Z,6.07
2023-03-16T18:14:08.643Z,6.03
2023-03-16T18:19:24.453Z,6.00
2023-03-16T18:24:28.187Z,5.96
2023-03-16T18:29:30.367Z,5.95
2023-03-16T18:34:40.736Z,5.84
2023-03-16T18:39:42.805Z,5.76
2023-03-16T18:44:44.610Z,5.75
2023-03-16T18:49:49.428Z,5.73
2023-03-16T18:54:51.844Z,5.73
2023-03-16T18:59:54.420Z,5.69
2023-03-16T19:04:58.908Z,5.66
2023-03-16T19:10:18.587Z,5.67
2023-03-16T19:15:29.070Z,5.68
2023-03-16T19:20:32.929Z,5.68
2023-03-16T19:25:38.565Z,5.72
2023-03-16T19:30:40.516Z,5.78
2023-03-16T19:35:51.576Z,5.74
2023-03-16T19:40:59.956Z,5.80
2023-03-16T19:46:01.775Z,5.85
2023-03-16T19:51:04.360Z,5.83
2023-03-16T19:56:10.142Z,5.84
2023-03-16T20:01:21.597Z,5.86
2023-03-16T20:06:24.306Z,5.87
2023-03-16T20:11:31.556Z,5.87
2023-03-16T20:16:35.888Z,5.88
2023-03-16T20:21:37.640Z,5.90
2023-03-16T20:26:39.375Z,5.95
2023-03-16T20:31:41.760Z,5.92
2023-03-16T20:36:43.454Z,5.91
2023-03-16T20:41:45.570Z,5.92
2023-03-16T20:46:47.648Z,5.97
2023-03-16T20:51:51.380Z,5.98
2023-03-16T20:56:57.981Z,5.89
2023-03-16T21:02:01.044Z,5.86
2023-03-16T21:07:06.280Z,5.82
2023-03-16T21:12:22.407Z,5.81
2023-03-16T21:17:30.782Z,5.69
2023-03-16T21:22:34.875Z,5.63
2023-03-16T21:27:37.517Z,5.56
2023-03-16T21:32:39.215Z,5.48
2023-03-16T21:37:41.044Z,5.42
2023-03-16T21:42:42.721Z,5.27
2023-03-16T21:47:45.769Z,5.19
2023-03-16T21:52:48.508Z,5.14
2023-03-16T21:57:50.818Z,5.05
2023-03-16T22:02:54.598Z,5.03
2023-03-16T22:07:58.077Z,5.01
2023-03-16T22:13:00.130Z,5.00
2023-03-16T22:18:08.475Z,5.00
2023-03-16T22:23:27.594Z,4.95
2023-03-16T22:28:32.858Z,4.97
2023-03-16T22:33:37.684Z,4.93
2023-03-16T22:38:40.112Z,4.86
2023-03-16T22:43:44.574Z,4.84
2023-03-16T22:48:46.607Z,4.86
2023-03-16T22:53:52.822Z,4.84
2023-03-16T22:59:00.825Z,4.85
2023-03-16T23:04:02.556Z,4.85
2023-03-16T23:09:04.845Z,4.85
2023-03-16T23:14:14.131Z,4.88
2023-03-16T23:19:25.046Z,4.85
2023-03-16T23:24:26.804Z,4.83
2023-03-16T23:29:28.814Z,4.82
2023-03-16T23:34:30.465Z,4.83
2023-03-16T23:39:32.419Z,4.79
2023-03-16T23:44:34.139Z,4.78
2023-03-16T23:49:38.593Z,4.75
2023-03-16T23:54:40.518Z,4.72
2023-03-16T23:59:42.237Z,4.68
